sensor_id;sensor_type;location;lat;lon;timestamp;temperature;humidity
8595;DHT22;4335;48.860;9.198;2023-08-20T00:01:12;24.20;99.90
8595;DHT22;4335;48.860;9.198;2023-08-20T00:03:48;24.20;99.90
8595;DHT22;4335;48.860;9.198;2023-08-20T00:06:16;24.20;99.90
8595;DHT22;4335;48.860;9.198;2023-08-20T00:08:52;24.20;99.90
8595;DHT22;4335;48.860;9.198;2023-08-20T00:11:26;24.20;99.90
8595;DHT22;4335;48.860;9.198;2023-08-20T00:13:56;24.20;99.90
8595;DHT22;4335;48.860;9.198;2023-08-20T00:16:29;24.10;99.90
8595;DHT22;4335;48.860;9.198;2023-08-20T00:18:59;24.10;99.90
8595;DHT22;4335;48.860;9.198;2023-08-20T00:21:27;24.10;99.90
8595;DHT22;4335;48.860;9.198;2023-08-20T00:23:57;24.10;99.90
8595;DHT22;4335;48.860;9.198;2023-08-20T00:26:25;24.10;99.90
8595;DHT22;4335;48.860;9.198;2023-08-20T00:28:52;24.10;99.90
8595;DHT22;4335;48.860;9.198;2023-08-20T00:31:19;24.10;99.90
8595;DHT22;4335;48.860;9.198;2023-08-20T00:33:46;24.10;99.90
8595;DHT22;4335;48.860;9.198;2023-08-20T00:36:16;24.10;99.90
8595;DHT22;4335;48.860;9.198;2023-08-20T00:38:44;24.10;99.90
8595;DHT22;4335;48.860;9.198;2023-08-20T00:41:15;24.10;99.90
8595;DHT22;4335;48.860;9.198;2023-08-20T00:43:43;24.10;99.90
8595;DHT22;4335;48.860;9.198;2023-08-20T00:46:11;24.10;99.90
8595;DHT22;4335;48.860;9.198;2023-08-20T00:48:46;24.10;99.90
8595;DHT22;4335;48.860;9.198;2023-08-20T00:51:14;24.10;99.90
8595;DHT22;4335;48.860;9.198;2023-08-20T00:53:42;24.10;99.90
8595;DHT22;4335;48.860;9.198;2023-08-20T00:56:12;24.10;99.90
8595;DHT22;4335;48.860;9.198;2023-08-20T00:58:48;24.10;99.90
8595;DHT22;4335;48.860;9.198;2023-08-20T01:01:16;24.10;99.90
8595;DHT22;4335;48.860;9.198;2023-08-20T01:03:44;24.10;99.90
8595;DHT22;4335;48.860;9.198;2023-08-20T01:06:23;24.00;99.90
8595;DHT22;4335;48.860;9.198;2023-08-20T01:08:57;24.00;99.90
8595;DHT22;4335;48.860;9.198;2023-08-20T01:11:30;24.00;99.90
8595;DHT22;4335;48.860;9.198;2023-08-20T01:14:14;24.00;99.90
8595;DHT22;4335;48.860;9.198;2023-08-20T01:16:42;23.90;99.90
8595;DHT22;4335;48.860;9.198;2023-08-20T01:19:13;23.90;99.90
8595;DHT22;4335;48.860;9.198;2023-08-20T01:21:55;23.90;99.90
8595;DHT22;4335;48.860;9.198;2023-08-20T01:24:43;23.80;99.90
8595;DHT22;4335;48.860;9.198;2023-08-20T01:27:31;23.80;99.90
8595;DHT22;4335;48.860;9.198;2023-08-20T01:30:06;23.80;99.90
8595;DHT22;4335;48.860;9.198;2023-08-20T01:32:34;23.80;99.90
8595;DHT22;4335;48.860;9.198;2023-08-20T01:35:02;23.80;99.90
8595;DHT22;4335;48.860;9.198;2023-08-20T01:37:30;23.80;99.90
8595;DHT22;4335;48.860;9.198;2023-08-20T01:40:00;23.70;99.90
8595;DHT22;4335;48.860;9.198;2023-08-20T01:42:37;23.70;99.90
8595;DHT22;4335;48.860;9.198;2023-08-20T01:45:10;23.70;99.90
8595;DHT22;4335;48.860;9.198;2023-08-20T01:47:40;23.70;99.90
8595;DHT22;4335;48.860;9.198;2023-08-20T01:50:18;23.70;99.90
8595;DHT22;4335;48.860;9.198;2023-08-20T01:52:48;23.70;99.90
8595;DHT22;4335;48.860;9.198;2023-08-20T01:55:16;23.60;99.90
8595;DHT22;4335;48.860;9.198;2023-08-20T01:57:43;23.60;99.90
8595;DHT22;4335;48.860;9.198;2023-08-20T02:00:15;23.60;99.90
8595;DHT22;4335;48.860;9.198;2023-08-20T02:02:48;23.60;99.90
8595;DHT22;4335;48.860;9.198;2023-08-20T02:05:16;23.50;99.90
8595;DHT22;4335;48.860;9.198;2023-08-20T02:07:46;23.50;99.90
8595;DHT22;4335;48.860;9.198;2023-08-20T02:10:14;23.50;99.90
8595;DHT22;4335;48.860;9.198;2023-08-20T02:12:50;23.50;99.90
8595;DHT22;4335;48.860;9.198;2023-08-20T02:15:19;23.50;99.90
8595;DHT22;4335;48.860;9.198;2023-08-20T02:17:47;23.40;99.90
8595;DHT22;4335;48.860;9.198;2023-08-20T02:20:15;23.40;99.90
8595;DHT22;4335;48.860;9.198;2023-08-20T02:22:42;23.50;99.90
8595;DHT22;4335;48.860;9.198;2023-08-20T02:25:10;23.40;99.90
8595;DHT22;4335;48.860;9.198;2023-08-20T02:27:37;23.40;99.90
8595;DHT22;4335;48.860;9.198;2023-08-20T02:30:08;23.40;99.90
8595;DHT22;4335;48.860;9.198;2023-08-20T02:32:40;23.30;99.90
8595;DHT22;4335;48.860;9.198;2023-08-20T02:35:08;23.30;99.90
8595;DHT22;4335;48.860;9.198;2023-08-20T02:37:36;23.30;99.90
8595;DHT22;4335;48.860;9.198;2023-08-20T02:40:04;23.30;99.90
8595;DHT22;4335;48.860;9.198;2023-08-20T02:42:34;23.20;99.90
8595;DHT22;4335;48.860;9.198;2023-08-20T02:45:02;23.20;99.90
8595;DHT22;4335;48.860;9.198;2023-08-20T02:47:30;23.20;99.90
8595;DHT22;4335;48.860;9.198;2023-08-20T02:50:06;23.10;99.90
8595;DHT22;4335;48.860;9.198;2023-08-20T02:52:37;23.20;99.90
8595;DHT22;4335;48.860;9.198;2023-08-20T02:55:07;23.10;99.90
8595;DHT22;4335;48.860;9.198;2023-08-20T02:57:41;23.10;99.90
8595;DHT22;4335;48.860;9.198;2023-08-20T03:00:21;23.00;99.90
8595;DHT22;4335;48.860;9.198;2023-08-20T03:02:51;23.00;99.90
8595;DHT22;4335;48.860;9.198;2023-08-20T03:05:20;23.00;99.90
8595;DHT22;4335;48.860;9.198;2023-08-20T03:07:50;23.00;99.90
8595;DHT22;4335;48.860;9.198;2023-08-20T03:10:18;23.00;99.90
8595;DHT22;4335;48.860;9.198;2023-08-20T03:12:45;22.90;99.90
8595;DHT22;4335;48.860;9.198;2023-08-20T03:15:15;22.90;99.90
8595;DHT22;4335;48.860;9.198;2023-08-20T03:17:58;22.80;99.90
8595;DHT22;4335;48.860;9.198;2023-08-20T03:20:27;22.80;99.90
8595;DHT22;4335;48.860;9.198;2023-08-20T03:23:03;22.80;99.90
8595;DHT22;4335;48.860;9.198;2023-08-20T03:25:30;22.70;99.90
8595;DHT22;4335;48.860;9.198;2023-08-20T03:27:58;22.70;99.90
8595;DHT22;4335;48.860;9.198;2023-08-20T03:30:31;22.70;99.90
8595;DHT22;4335;48.860;9.198;2023-08-20T03:33:02;22.60;99.90
8595;DHT22;4335;48.860;9.198;2023-08-20T03:35:34;22.60;99.90
8595;DHT22;4335;48.860;9.198;2023-08-20T03:38:01;22.60;99.90
8595;DHT22;4335;48.860;9.198;2023-08-20T03:40:34;22.60;99.90
8595;DHT22;4335;48.860;9.198;2023-08-20T03:43:02;22.50;99.90
8595;DHT22;4335;48.860;9.198;2023-08-20T03:45:31;22.50;99.90
8595;DHT22;4335;48.860;9.198;2023-08-20T03:48:05;22.50;99.90
8595;DHT22;4335;48.860;9.198;2023-08-20T03:50:34;22.50;99.90
8595;DHT22;4335;48.860;9.198;2023-08-20T03:53:04;22.50;99.90
8595;DHT22;4335;48.860;9.198;2023-08-20T03:55:32;22.50;99.90
8595;DHT22;4335;48.860;9.198;2023-08-20T03:58:08;22.50;99.90
8595;DHT22;4335;48.860;9.198;2023-08-20T04:00:45;22.50;99.90
8595;DHT22;4335;48.860;9.198;2023-08-20T04:03:12;22.40;99.90
8595;DHT22;4335;48.860;9.198;2023-08-20T04:05:41;22.40;99.90
8595;DHT22;4335;48.860;9.198;2023-08-20T04:08:08;22.40;99.90
8595;DHT22;4335;48.860;9.198;2023-08-20T04:10:37;22.40;99.90
8595;DHT22;4335;48.860;9.198;2023-08-20T04:13:09;22.40;99.90
8595;DHT22;4335;48.860;9.198;2023-08-20T04:15:38;22.40;99.90
8595;DHT22;4335;48.860;9.198;2023-08-20T04:18:06;22.40;99.90
8595;DHT22;4335;48.860;9.198;2023-08-20T04:20:33;22.30;99.90
8595;DHT22;4335;48.860;9.198;2023-08-20T04:23:05;22.30;99.90
8595;DHT22;4335;48.860;9.198;2023-08-20T04:25:33;22.30;99.90
8595;DHT22;4335;48.860;9.198;2023-08-20T04:28:10;22.30;99.90
8595;DHT22;4335;48.860;9.198;2023-08-20T04:30:43;22.30;99.90
8595;DHT22;4335;48.860;9.198;2023-08-20T04:33:11;22.30;99.90
8595;DHT22;4335;48.860;9.198;2023-08-20T04:35:38;22.30;99.90
8595;DHT22;4335;48.860;9.198;2023-08-20T04:38:07;22.30;99.90
8595;DHT22;4335;48.860;9.198;2023-08-20T04:40:41;22.30;99.90
8595;DHT22;4335;48.860;9.198;2023-08-20T04:43:08;22.30;99.90
8595;DHT22;4335;48.860;9.198;2023-08-20T04:45:36;22.30;99.90
8595;DHT22;4335;48.860;9.198;2023-08-20T04:48:06;22.40;99.90
8595;DHT22;4335;48.860;9.198;2023-08-20T04:50:34;22.40;99.90
8595;DHT22;4335;48.860;9.198;2023-08-20T04:53:04;22.50;99.90
8595;DHT22;4335;48.860;9.198;2023-08-20T04:55:33;22.60;99.90
8595;DHT22;4335;48.860;9.198;2023-08-20T04:58:04;22.60;99.90
8595;DHT22;4335;48.860;9.198;2023-08-20T05:00:40;22.70;99.90
8595;DHT22;4335;48.860;9.198;2023-08-20T05:03:09;22.80;99.90
8595;DHT22;4335;48.860;9.198;2023-08-20T05:05:36;23.00;99.90
8595;DHT22;4335;48.860;9.198;2023-08-20T05:08:07;23.10;99.90
8595;DHT22;4335;48.860;9.198;2023-08-20T05:10:37;23.30;99.90
8595;DHT22;4335;48.860;9.198;2023-08-20T05:13:07;23.50;99.90
8595;DHT22;4335;48.860;9.198;2023-08-20T05:15:35;23.70;99.90
8595;DHT22;4335;48.860;9.198;2023-08-20T05:18:09;23.90;99.90
8595;DHT22;4335;48.860;9.198;2023-08-20T05:20:42;24.00;99.90
8595;DHT22;4335;48.860;9.198;2023-08-20T05:23:12;24.20;99.90
8595;DHT22;4335;48.860;9.198;2023-08-20T05:25:41;24.40;99.90
8595;DHT22;4335;48.860;9.198;2023-08-20T05:28:11;24.60;99.90
8595;DHT22;4335;48.860;9.198;2023-08-20T05:30:42;24.80;99.90
8595;DHT22;4335;48.860;9.198;2023-08-20T05:33:12;25.00;99.90
8595;DHT22;4335;48.860;9.198;2023-08-20T05:35:40;25.20;99.90
8595;DHT22;4335;48.860;9.198;2023-08-20T05:38:07;25.30;99.90
8595;DHT22;4335;48.860;9.198;2023-08-20T05:40:37;25.60;99.90
8595;DHT22;4335;48.860;9.198;2023-08-20T05:43:09;25.80;99.90
8595;DHT22;4335;48.860;9.198;2023-08-20T05:45:40;26.00;99.90
8595;DHT22;4335;48.860;9.198;2023-08-20T05:48:07;26.20;99.90
8595;DHT22;4335;48.860;9.198;2023-08-20T05:50:41;26.50;99.90
8595;DHT22;4335;48.860;9.198;2023-08-20T05:53:08;26.80;99.90
8595;DHT22;4335;48.860;9.198;2023-08-20T05:55:38;27.10;99.90
8595;DHT22;4335;48.860;9.198;2023-08-20T05:58:06;27.40;99.90
8595;DHT22;4335;48.860;9.198;2023-08-20T06:00:35;27.90;99.90
8595;DHT22;4335;48.860;9.198;2023-08-20T06:03:05;28.30;99.90
8595;DHT22;4335;48.860;9.198;2023-08-20T06:05:36;28.80;99.90
8595;DHT22;4335;48.860;9.198;2023-08-20T06:08:05;29.30;99.90
8595;DHT22;4335;48.860;9.198;2023-08-20T06:10:38;29.80;99.90
8595;DHT22;4335;48.860;9.198;2023-08-20T06:13:05;30.30;99.90
8595;DHT22;4335;48.860;9.198;2023-08-20T06:15:34;30.70;99.90
8595;DHT22;4335;48.860;9.198;2023-08-20T06:18:05;31.20;99.90
8595;DHT22;4335;48.860;9.198;2023-08-20T06:20:32;31.60;99.90
8595;DHT22;4335;48.860;9.198;2023-08-20T06:23:00;32.10;99.90
8595;DHT22;4335;48.860;9.198;2023-08-20T06:25:27;32.60;99.90
8595;DHT22;4335;48.860;9.198;2023-08-20T06:27:55;33.00;99.90
8595;DHT22;4335;48.860;9.198;2023-08-20T06:30:22;33.40;99.90
8595;DHT22;4335;48.860;9.198;2023-08-20T06:32:54;33.50;99.90
8595;DHT22;4335;48.860;9.198;2023-08-20T06:35:24;33.60;99.90
8595;DHT22;4335;48.860;9.198;2023-08-20T06:37:55;33.30;99.90
8595;DHT22;4335;48.860;9.198;2023-08-20T06:40:22;33.00;99.90
8595;DHT22;4335;48.860;9.198;2023-08-20T06:42:52;32.90;99.90
8595;DHT22;4335;48.860;9.198;2023-08-20T06:45:20;32.80;99.90
8595;DHT22;4335;48.860;9.198;2023-08-20T06:47:50;33.00;99.90
8595;DHT22;4335;48.860;9.198;2023-08-20T06:50:19;33.20;99.90
8595;DHT22;4335;48.860;9.198;2023-08-20T06:52:49;33.60;99.90
8595;DHT22;4335;48.860;9.198;2023-08-20T06:55:16;33.40;99.90
8595;DHT22;4335;48.860;9.198;2023-08-20T06:57:44;33.20;99.90
8595;DHT22;4335;48.860;9.198;2023-08-20T07:00:11;33.20;99.90
8595;DHT22;4335;48.860;9.198;2023-08-20T07:02:42;33.40;99.90
8595;DHT22;4335;48.860;9.198;2023-08-20T07:05:09;33.60;99.90
8595;DHT22;4335;48.860;9.198;2023-08-20T07:07:38;33.40;99.90
8595;DHT22;4335;48.860;9.198;2023-08-20T07:10:07;33.50;99.90
8595;DHT22;4335;48.860;9.198;2023-08-20T07:12:40;33.70;99.90
8595;DHT22;4335;48.860;9.198;2023-08-20T07:15:11;33.40;99.90
8595;DHT22;4335;48.860;9.198;2023-08-20T07:17:38;33.50;99.90
8595;DHT22;4335;48.860;9.198;2023-08-20T07:20:06;33.50;99.90
8595;DHT22;4335;48.860;9.198;2023-08-20T07:22:34;33.50;99.90
8595;DHT22;4335;48.860;9.198;2023-08-20T07:25:06;34.00;99.90
8595;DHT22;4335;48.860;9.198;2023-08-20T07:27:33;34.20;99.90
8595;DHT22;4335;48.860;9.198;2023-08-20T07:30:04;34.60;99.90
8595;DHT22;4335;48.860;9.198;2023-08-20T07:32:44;35.40;99.90
8595;DHT22;4335;48.860;9.198;2023-08-20T07:35:12;36.20;99.90
8595;DHT22;4335;48.860;9.198;2023-08-20T07:37:39;36.30;99.90
8595;DHT22;4335;48.860;9.198;2023-08-20T07:40:14;36.30;99.90
8595;DHT22;4335;48.860;9.198;2023-08-20T07:42:42;36.10;99.90
8595;DHT22;4335;48.860;9.198;2023-08-20T07:45:10;36.60;99.90
8595;DHT22;4335;48.860;9.198;2023-08-20T07:47:43;36.80;99.90
8595;DHT22;4335;48.860;9.198;2023-08-20T07:50:14;37.20;99.90
8595;DHT22;4335;48.860;9.198;2023-08-20T07:52:41;37.60;99.90
8595;DHT22;4335;48.860;9.198;2023-08-20T07:55:12;38.10;99.90
8595;DHT22;4335;48.860;9.198;2023-08-20T07:57:43;38.60;98.80
8595;DHT22;4335;48.860;9.198;2023-08-20T08:00:12;38.70;97.50
8595;DHT22;4335;48.860;9.198;2023-08-20T08:02:39;38.40;97.50
8595;DHT22;4335;48.860;9.198;2023-08-20T08:05:13;37.90;97.80
8595;DHT22;4335;48.860;9.198;2023-08-20T08:07:43;37.40;98.70
8595;DHT22;4335;48.860;9.198;2023-08-20T08:10:20;36.50;99.90
8595;DHT22;4335;48.860;9.198;2023-08-20T08:12:49;36.10;99.90
8595;DHT22;4335;48.860;9.198;2023-08-20T08:15:23;35.90;99.90
8595;DHT22;4335;48.860;9.198;2023-08-20T08:17:50;36.20;99.90
8595;DHT22;4335;48.860;9.198;2023-08-20T08:20:17;37.00;99.90
8595;DHT22;4335;48.860;9.198;2023-08-20T08:22:47;37.70;99.10
8595;DHT22;4335;48.860;9.198;2023-08-20T08:25:17;38.10;98.00
8595;DHT22;4335;48.860;9.198;2023-08-20T08:27:45;37.50;98.40
8595;DHT22;4335;48.860;9.198;2023-08-20T08:30:22;37.20;99.00
8595;DHT22;4335;48.860;9.198;2023-08-20T08:32:52;37.10;99.80
8595;DHT22;4335;48.860;9.198;2023-08-20T08:35:20;37.40;99.60
8595;DHT22;4335;48.860;9.198;2023-08-20T08:37:53;37.40;99.60
8595;DHT22;4335;48.860;9.198;2023-08-20T08:40:25;37.90;98.90
8595;DHT22;4335;48.860;9.198;2023-08-20T08:43:02;37.90;98.30
8595;DHT22;4335;48.860;9.198;2023-08-20T08:45:40;38.80;97.30
8595;DHT22;4335;48.860;9.198;2023-08-20T08:48:09;39.50;96.10
8595;DHT22;4335;48.860;9.198;2023-08-20T08:50:45;40.10;94.80
8595;DHT22;4335;48.860;9.198;2023-08-20T08:53:13;40.50;93.40
8595;DHT22;4335;48.860;9.198;2023-08-20T08:55:41;41.30;91.30
8595;DHT22;4335;48.860;9.198;2023-08-20T08:58:11;42.30;87.80
8595;DHT22;4335;48.860;9.198;2023-08-20T09:00:40;42.00;85.50
8595;DHT22;4335;48.860;9.198;2023-08-20T09:03:07;42.30;84.10
8595;DHT22;4335;48.860;9.198;2023-08-20T09:05:55;42.30;81.70
8595;DHT22;4335;48.860;9.198;2023-08-20T09:08:26;42.90;78.30
8595;DHT22;4335;48.860;9.198;2023-08-20T09:11:02;43.10;77.20
8595;DHT22;4335;48.860;9.198;2023-08-20T09:13:33;43.40;74.30
8595;DHT22;4335;48.860;9.198;2023-08-20T09:16:05;44.10;72.00
8595;DHT22;4335;48.860;9.198;2023-08-20T09:18:40;44.70;69.80
8595;DHT22;4335;48.860;9.198;2023-08-20T09:21:11;45.20;67.10
8595;DHT22;4335;48.860;9.198;2023-08-20T09:23:45;45.00;65.70
8595;DHT22;4335;48.860;9.198;2023-08-20T09:26:16;45.50;63.40
8595;DHT22;4335;48.860;9.198;2023-08-20T09:28:45;45.90;61.40
8595;DHT22;4335;48.860;9.198;2023-08-20T09:31:20;45.90;60.00
8595;DHT22;4335;48.860;9.198;2023-08-20T09:33:53;45.90;58.90
8595;DHT22;4335;48.860;9.198;2023-08-20T09:36:31;45.60;58.30
8595;DHT22;4335;48.860;9.198;2023-08-20T09:39:01;45.70;57.80
8595;DHT22;4335;48.860;9.198;2023-08-20T09:41:33;45.60;56.80
8595;DHT22;4335;48.860;9.198;2023-08-20T09:44:04;45.70;56.90
8595;DHT22;4335;48.860;9.198;2023-08-20T09:46:35;45.40;57.10
8595;DHT22;4335;48.860;9.198;2023-08-20T09:49:05;45.10;56.40
8595;DHT22;4335;48.860;9.198;2023-08-20T09:51:35;45.10;56.20
8595;DHT22;4335;48.860;9.198;2023-08-20T09:54:10;44.80;57.10
8595;DHT22;4335;48.860;9.198;2023-08-20T09:56:40;45.00;57.20
8595;DHT22;4335;48.860;9.198;2023-08-20T09:59:13;44.70;56.90
8595;DHT22;4335;48.860;9.198;2023-08-20T10:01:44;45.10;56.30
8595;DHT22;4335;48.860;9.198;2023-08-20T10:04:14;45.30;56.10
8595;DHT22;4335;48.860;9.198;2023-08-20T10:06:43;45.60;56.10
8595;DHT22;4335;48.860;9.198;2023-08-20T10:09:10;46.10;55.90
8595;DHT22;4335;48.860;9.198;2023-08-20T10:11:40;46.70;54.80
8595;DHT22;4335;48.860;9.198;2023-08-20T10:14:13;46.30;54.00
8595;DHT22;4335;48.860;9.198;2023-08-20T10:16:41;46.60;54.30
8595;DHT22;4335;48.860;9.198;2023-08-20T10:19:11;47.20;54.20
8595;DHT22;4335;48.860;9.198;2023-08-20T10:21:44;46.80;51.90
8595;DHT22;4335;48.860;9.198;2023-08-20T10:24:17;46.90;51.80
8595;DHT22;4335;48.860;9.198;2023-08-20T10:26:45;46.20;51.40
8595;DHT22;4335;48.860;9.198;2023-08-20T10:29:39;45.70;51.50
8595;DHT22;4335;48.860;9.198;2023-08-20T10:32:11;45.90;52.90
8595;DHT22;4335;48.860;9.198;2023-08-20T10:34:50;45.60;52.30
8595;DHT22;4335;48.860;9.198;2023-08-20T10:37:28;45.40;52.40
8595;DHT22;4335;48.860;9.198;2023-08-20T10:40:01;45.00;51.60
8595;DHT22;4335;48.860;9.198;2023-08-20T10:42:30;44.60;52.50
8595;DHT22;4335;48.860;9.198;2023-08-20T10:45:02;44.40;53.30
8595;DHT22;4335;48.860;9.198;2023-08-20T10:47:43;44.00;52.80
8595;DHT22;4335;48.860;9.198;2023-08-20T10:50:16;43.10;53.80
8595;DHT22;4335;48.860;9.198;2023-08-20T10:52:50;42.20;55.60
8595;DHT22;4335;48.860;9.198;2023-08-20T10:55:22;41.00;57.50
8595;DHT22;4335;48.860;9.198;2023-08-20T10:57:57;40.00;59.00
8595;DHT22;4335;48.860;9.198;2023-08-20T11:00:28;38.60;61.50
8595;DHT22;4335;48.860;9.198;2023-08-20T11:02:55;37.30;63.90
8595;DHT22;4335;48.860;9.198;2023-08-20T11:05:29;36.20;67.20
8595;DHT22;4335;48.860;9.198;2023-08-20T11:08:03;35.70;70.80
8595;DHT22;4335;48.860;9.198;2023-08-20T11:10:33;35.10;72.50
8595;DHT22;4335;48.860;9.198;2023-08-20T11:13:01;34.50;74.70
8595;DHT22;4335;48.860;9.198;2023-08-20T11:15:29;33.90;78.00
8595;DHT22;4335;48.860;9.198;2023-08-20T11:17:57;33.30;80.80
8595;DHT22;4335;48.860;9.198;2023-08-20T11:20:32;33.10;83.30
8595;DHT22;4335;48.860;9.198;2023-08-20T11:23:01;32.70;87.00
8595;DHT22;4335;48.860;9.198;2023-08-20T11:25:29;32.40;88.90
8595;DHT22;4335;48.860;9.198;2023-08-20T11:27:59;32.10;90.90
8595;DHT22;4335;48.860;9.198;2023-08-20T11:30:29;32.00;92.60
8595;DHT22;4335;48.860;9.198;2023-08-20T11:32:57;31.80;92.50
8595;DHT22;4335;48.860;9.198;2023-08-20T11:35:25;31.60;93.70
8595;DHT22;4335;48.860;9.198;2023-08-20T11:37:54;31.50;94.40
8595;DHT22;4335;48.860;9.198;2023-08-20T11:40:23;31.50;94.40
8595;DHT22;4335;48.860;9.198;2023-08-20T11:42:50;31.50;95.00
8595;DHT22;4335;48.860;9.198;2023-08-20T11:45:27;31.50;95.40
8595;DHT22;4335;48.860;9.198;2023-08-20T11:47:56;31.50;95.70
8595;DHT22;4335;48.860;9.198;2023-08-20T11:50:24;31.50;95.10
8595;DHT22;4335;48.860;9.198;2023-08-20T11:52:58;31.40;95.80
8595;DHT22;4335;48.860;9.198;2023-08-20T11:55:30;31.30;96.80
8595;DHT22;4335;48.860;9.198;2023-08-20T11:57:57;31.20;98.20
8595;DHT22;4335;48.860;9.198;2023-08-20T12:00:29;31.10;99.10
8595;DHT22;4335;48.860;9.198;2023-08-20T12:02:57;31.10;99.20
8595;DHT22;4335;48.860;9.198;2023-08-20T12:05:27;31.00;99.50
8595;DHT22;4335;48.860;9.198;2023-08-20T12:07:59;31.00;99.30
8595;DHT22;4335;48.860;9.198;2023-08-20T12:10:32;31.00;99.70
8595;DHT22;4335;48.860;9.198;2023-08-20T12:13:02;31.00;99.90
8595;DHT22;4335;48.860;9.198;2023-08-20T12:15:30;31.00;99.90
8595;DHT22;4335;48.860;9.198;2023-08-20T12:17:58;31.00;99.90
8595;DHT22;4335;48.860;9.198;2023-08-20T12:20:27;30.90;99.90
8595;DHT22;4335;48.860;9.198;2023-08-20T12:23:01;30.80;99.90
8595;DHT22;4335;48.860;9.198;2023-08-20T12:25:30;30.90;99.90
8595;DHT22;4335;48.860;9.198;2023-08-20T12:28:10;30.90;99.90
8595;DHT22;4335;48.860;9.198;2023-08-20T12:30:46;30.90;99.90
8595;DHT22;4335;48.860;9.198;2023-08-20T12:33:14;30.80;99.90
8595;DHT22;4335;48.860;9.198;2023-08-20T12:35:41;30.80;99.90
8595;DHT22;4335;48.860;9.198;2023-08-20T12:38:10;30.80;99.90
8595;DHT22;4335;48.860;9.198;2023-08-20T12:40:40;30.90;99.90
8595;DHT22;4335;48.860;9.198;2023-08-20T12:43:08;30.90;99.90
8595;DHT22;4335;48.860;9.198;2023-08-20T12:45:35;31.00;99.90
8595;DHT22;4335;48.860;9.198;2023-08-20T12:48:04;31.00;99.90
8595;DHT22;4335;48.860;9.198;2023-08-20T12:50:31;31.00;99.90
8595;DHT22;4335;48.860;9.198;2023-08-20T12:52:59;31.00;99.90
8595;DHT22;4335;48.860;9.198;2023-08-20T12:55:29;31.00;99.90
8595;DHT22;4335;48.860;9.198;2023-08-20T12:57:58;31.00;99.90
8595;DHT22;4335;48.860;9.198;2023-08-20T13:00:26;31.10;99.90
8595;DHT22;4335;48.860;9.198;2023-08-20T13:02:54;31.10;99.90
8595;DHT22;4335;48.860;9.198;2023-08-20T13:05:23;30.90;99.90
8595;DHT22;4335;48.860;9.198;2023-08-20T13:07:51;30.90;99.90
8595;DHT22;4335;48.860;9.198;2023-08-20T13:10:20;30.90;99.90
8595;DHT22;4335;48.860;9.198;2023-08-20T13:12:50;31.00;99.90
8595;DHT22;4335;48.860;9.198;2023-08-20T13:15:22;31.10;99.90
8595;DHT22;4335;48.860;9.198;2023-08-20T13:17:51;31.10;99.90
8595;DHT22;4335;48.860;9.198;2023-08-20T13:20:19;31.20;99.90
8595;DHT22;4335;48.860;9.198;2023-08-20T13:22:52;31.20;99.90
8595;DHT22;4335;48.860;9.198;2023-08-20T13:25:20;31.30;99.90
8595;DHT22;4335;48.860;9.198;2023-08-20T13:27:52;31.30;99.90
8595;DHT22;4335;48.860;9.198;2023-08-20T13:30:19;31.30;99.90
8595;DHT22;4335;48.860;9.198;2023-08-20T13:32:47;31.20;99.90
8595;DHT22;4335;48.860;9.198;2023-08-20T13:35:17;31.10;99.90
8595;DHT22;4335;48.860;9.198;2023-08-20T13:37:51;31.20;99.90
8595;DHT22;4335;48.860;9.198;2023-08-20T13:40:19;31.30;99.90
8595;DHT22;4335;48.860;9.198;2023-08-20T13:42:47;31.20;99.90
8595;DHT22;4335;48.860;9.198;2023-08-20T13:45:18;31.20;99.90
8595;DHT22;4335;48.860;9.198;2023-08-20T13:47:46;31.20;99.90
8595;DHT22;4335;48.860;9.198;2023-08-20T13:50:16;31.20;99.90
8595;DHT22;4335;48.860;9.198;2023-08-20T13:52:43;31.20;99.90
8595;DHT22;4335;48.860;9.198;2023-08-20T13:55:11;31.30;99.90
8595;DHT22;4335;48.860;9.198;2023-08-20T13:57:38;31.30;99.90
8595;DHT22;4335;48.860;9.198;2023-08-20T14:00:06;31.20;99.90
8595;DHT22;4335;48.860;9.198;2023-08-20T14:02:39;31.30;99.90
8595;DHT22;4335;48.860;9.198;2023-08-20T14:05:09;31.30;99.90
8595;DHT22;4335;48.860;9.198;2023-08-20T14:07:39;31.00;99.90
8595;DHT22;4335;48.860;9.198;2023-08-20T14:10:12;31.00;99.90
8595;DHT22;4335;48.860;9.198;2023-08-20T14:12:39;31.10;99.90
8595;DHT22;4335;48.860;9.198;2023-08-20T14:15:08;31.20;99.90
8595;DHT22;4335;48.860;9.198;2023-08-20T14:17:36;31.00;99.90
8595;DHT22;4335;48.860;9.198;2023-08-20T14:20:06;31.00;99.90
8595;DHT22;4335;48.860;9.198;2023-08-20T14:22:34;31.10;99.90
8595;DHT22;4335;48.860;9.198;2023-08-20T14:25:02;31.20;99.90
8595;DHT22;4335;48.860;9.198;2023-08-20T14:27:29;31.20;99.90
8595;DHT22;4335;48.860;9.198;2023-08-20T14:29:59;31.20;99.90
8595;DHT22;4335;48.860;9.198;2023-08-20T14:32:28;31.20;99.90
8595;DHT22;4335;48.860;9.198;2023-08-20T14:34:59;31.20;99.90
8595;DHT22;4335;48.860;9.198;2023-08-20T14:37:27;31.20;99.90
8595;DHT22;4335;48.860;9.198;2023-08-20T14:39:55;31.20;99.90
8595;DHT22;4335;48.860;9.198;2023-08-20T14:42:25;31.20;99.90
8595;DHT22;4335;48.860;9.198;2023-08-20T14:44:52;31.00;99.90
8595;DHT22;4335;48.860;9.198;2023-08-20T14:47:21;31.00;99.90
8595;DHT22;4335;48.860;9.198;2023-08-20T14:49:49;31.00;99.90
8595;DHT22;4335;48.860;9.198;2023-08-20T14:52:19;31.10;99.90
8595;DHT22;4335;48.860;9.198;2023-08-20T14:54:54;31.00;99.90
8595;DHT22;4335;48.860;9.198;2023-08-20T14:57:21;31.00;99.90
8595;DHT22;4335;48.860;9.198;2023-08-20T14:59:50;31.00;99.90
8595;DHT22;4335;48.860;9.198;2023-08-20T15:02:17;30.90;99.90
8595;DHT22;4335;48.860;9.198;2023-08-20T15:04:51;30.90;99.90
8595;DHT22;4335;48.860;9.198;2023-08-20T15:07:18;30.80;99.90
8595;DHT22;4335;48.860;9.198;2023-08-20T15:09:45;30.90;99.90
8595;DHT22;4335;48.860;9.198;2023-08-20T15:12:17;30.90;99.90
8595;DHT22;4335;48.860;9.198;2023-08-20T15:14:47;30.90;99.90
8595;DHT22;4335;48.860;9.198;2023-08-20T15:17:14;30.90;99.90
8595;DHT22;4335;48.860;9.198;2023-08-20T15:19:42;30.90;99.90
8595;DHT22;4335;48.860;9.198;2023-08-20T15:22:13;30.90;99.90
8595;DHT22;4335;48.860;9.198;2023-08-20T15:24:40;30.80;99.90
8595;DHT22;4335;48.860;9.198;2023-08-20T15:27:07;31.00;99.90
8595;DHT22;4335;48.860;9.198;2023-08-20T15:29:36;31.00;99.90
8595;DHT22;4335;48.860;9.198;2023-08-20T15:32:04;30.90;99.90
8595;DHT22;4335;48.860;9.198;2023-08-20T15:34:32;30.80;99.90
8595;DHT22;4335;48.860;9.198;2023-08-20T15:36:59;30.80;99.90
8595;DHT22;4335;48.860;9.198;2023-08-20T15:39:26;30.90;99.90
8595;DHT22;4335;48.860;9.198;2023-08-20T15:41:54;30.80;99.90
8595;DHT22;4335;48.860;9.198;2023-08-20T15:44:21;30.70;99.90
8595;DHT22;4335;48.860;9.198;2023-08-20T15:46:50;30.60;99.90
8595;DHT22;4335;48.860;9.198;2023-08-20T15:49:26;30.70;99.90
8595;DHT22;4335;48.860;9.198;2023-08-20T15:51:54;30.70;99.90
8595;DHT22;4335;48.860;9.198;2023-08-20T15:54:24;30.70;99.90
8595;DHT22;4335;48.860;9.198;2023-08-20T15:56:58;30.80;99.90
8595;DHT22;4335;48.860;9.198;2023-08-20T15:59:29;30.90;99.90
8595;DHT22;4335;48.860;9.198;2023-08-20T16:01:57;30.90;99.90
8595;DHT22;4335;48.860;9.198;2023-08-20T16:04:25;30.80;99.90
8595;DHT22;4335;48.860;9.198;2023-08-20T16:06:52;30.90;99.90
8595;DHT22;4335;48.860;9.198;2023-08-20T16:09:20;31.00;99.90
8595;DHT22;4335;48.860;9.198;2023-08-20T16:11:47;31.10;99.90
8595;DHT22;4335;48.860;9.198;2023-08-20T16:14:15;31.20;99.90
8595;DHT22;4335;48.860;9.198;2023-08-20T16:16:42;31.20;99.90
8595;DHT22;4335;48.860;9.198;2023-08-20T16:19:11;31.20;99.90
8595;DHT22;4335;48.860;9.198;2023-08-20T16:21:38;31.20;99.90